Time;durP1;ratioP1;P1;durP2;ratioP2;P2;SDS_P1;SDS_P2;PMS_P1;PMS_P2;Temp;Humidity;BMP_temperature;BMP_pressure;BME280_temperature;BME280_humidity;BME280_pressure;Samples;Min_cycle;Max_cycle;Signal;HPM_P1;HPM_P2
2021/04/17 00:01:44;;;;;;;7.87;3.23;;;;;;;;;;5078613;28;20235;-70
2021/04/17 00:04:10;;;;;;;11.60;3.70;;;;;;;;;;5076577;28;20191;-70
2021/04/17 00:06:35;;;;;;;11.33;4.60;;;;;;;;;;5077862;28;20271;-70
2021/04/17 00:09:02;;;;;;;7.77;4.27;;;;;;;;;;5084494;28;20219;-70
2021/04/17 00:11:28;;;;;;;6.47;4.60;;;;;;;;;;5083021;28;20204;-70
2021/04/17 00:13:53;;;;;;;8.40;3.43;;;;;;;;;;5076437;28;20172;-70
2021/04/17 00:16:19;;;;;;;4.50;3.17;;;;;;;;;;5075753;28;20189;-69
2021/04/17 00:18:44;;;;;;;6.33;3.83;;;;;;;;;;5074877;28;20539;-69
2021/04/17 00:21:10;;;;;;;13.87;4.07;;;;;;;;;;5074131;28;20204;-70
2021/04/17 00:23:35;;;;;;;7.43;3.43;;;;;;;;;;5070766;28;20557;-68
2021/04/17 00:26:00;;;;;;;8.60;4.00;;;;;;;;;;5076474;28;20378;-70
2021/04/17 00:28:26;;;;;;;10.80;3.47;;;;;;;;;;5071158;28;20184;-70
2021/04/17 00:30:51;;;;;;;5.50;3.70;;;;;;;;;;5071209;28;21566;-70
2021/04/17 00:33:16;;;;;;;5.00;3.90;;;;;;;;;;5079072;28;20187;-69
2021/04/17 00:35:41;;;;;;;10.87;3.57;;;;;;;;;;5080137;28;20308;-70
2021/04/17 00:38:06;;;;;;;8.13;2.97;;;;;;;;;;5078235;28;20172;-70
2021/04/17 00:40:32;;;;;;;5.93;2.80;;;;;;;;;;5083486;28;20201;-68
2021/04/17 00:42:57;;;;;;;6.23;3.47;;;;;;;;;;5083786;28;20194;-69
2021/04/17 00:45:22;;;;;;;5.73;3.20;;;;;;;;;;5074810;28;20196;-69
2021/04/17 00:47:47;;;;;;;6.80;3.63;;;;;;;;;;5077886;28;20184;-69
2021/04/17 00:50:13;;;;;;;5.60;3.40;;;;;;;;;;5082092;28;20604;-69
2021/04/17 00:52:39;;;;;;;6.17;3.37;;;;;;;;;;5079476;28;20177;-70
2021/04/17 00:55:04;;;;;;;4.93;3.20;;;;;;;;;;5080700;28;20223;-68
2021/04/17 00:57:30;;;;;;;4.23;3.10;;;;;;;;;;5079549;28;20262;-70
2021/04/17 00:59:55;;;;;;;5.10;3.17;;;;;;;;;;5082735;28;20189;-70
2021/04/17 01:02:29;;;;;;;7.17;3.50;;;;;;;;;;5080788;28;20208;-70
2021/04/17 01:04:55;;;;;;;5.77;3.03;;;;;;;;;;5081557;28;20211;-69
2021/04/17 01:07:23;;;;;;;9.10;3.07;;;;;;;;;;5081147;28;20184;-70
2021/04/17 01:10:07;;;;;;;4.07;2.90;;;;;;;;;;5082124;28;20198;-69
2021/04/17 01:12:33;;;;;;;5.70;2.93;;;;;;;;;;5079836;28;20180;-69
2021/04/17 01:14:58;;;;;;;7.13;2.70;;;;;;;;;;5091323;28;20172;-69
2021/04/17 01:17:24;;;;;;;8.17;2.93;;;;;;;;;;5078510;28;20176;-69
2021/04/17 01:19:49;;;;;;;8.40;3.23;;;;;;;;;;5081122;28;20634;-69
2021/04/17 01:22:17;;;;;;;5.47;2.73;;;;;;;;;;5080307;28;20196;-69
2021/04/17 01:24:45;;;;;;;4.20;2.70;;;;;;;;;;5077812;28;20203;-68
2021/04/17 01:27:10;;;;;;;4.40;2.77;;;;;;;;;;5080620;28;20192;-70
2021/04/17 01:29:37;;;;;;;5.87;3.30;;;;;;;;;;5079305;28;20205;-70
2021/04/17 01:32:03;;;;;;;5.20;3.10;;;;;;;;;;5079420;28;20200;-70
2021/04/17 01:34:29;;;;;;;6.20;2.60;;;;;;;;;;5077336;28;20220;-69
2021/04/17 01:36:54;;;;;;;6.37;2.67;;;;;;;;;;5080104;28;20227;-70
2021/04/17 01:39:24;;;;;;;4.83;3.30;;;;;;;;;;5081462;28;20193;-69
2021/04/17 01:41:51;;;;;;;4.10;2.50;;;;;;;;;;5079992;28;20229;-69
2021/04/17 01:44:18;;;;;;;5.53;3.00;;;;;;;;;;5080433;28;20219;-70
2021/04/17 01:46:51;;;;;;;9.70;3.60;;;;;;;;;;5079297;28;20209;-70
2021/04/17 01:49:17;;;;;;;6.67;2.80;;;;;;;;;;5080463;28;20184;-68
2021/04/17 01:51:44;;;;;;;5.90;2.97;;;;;;;;;;5080354;28;20257;-69
2021/04/17 01:54:14;;;;;;;5.67;2.63;;;;;;;;;;5081544;28;20176;-70
2021/04/17 01:56:42;;;;;;;4.50;2.80;;;;;;;;;;5079273;28;20207;-69
2021/04/17 01:59:07;;;;;;;4.27;2.90;;;;;;;;;;5078579;28;20224;-69
2021/04/17 02:01:32;;;;;;;5.23;2.70;;;;;;;;;;5077328;28;20693;-70
2021/04/17 02:03:58;;;;;;;5.00;2.63;;;;;;;;;;5079590;28;20204;-70
2021/04/17 02:06:23;;;;;;;6.43;2.80;;;;;;;;;;5079384;28;20187;-70
2021/04/17 02:08:48;;;;;;;4.17;2.27;;;;;;;;;;5077748;28;20525;-69
2021/04/17 02:11:13;;;;;;;4.37;2.43;;;;;;;;;;5078770;28;20761;-70
2021/04/17 02:13:39;;;;;;;4.33;2.47;;;;;;;;;;5078680;28;20173;-69
2021/04/17 02:16:20;;;;;;;5.27;2.60;;;;;;;;;;5080097;28;20176;-70
2021/04/17 02:18:48;;;;;;;3.00;2.70;;;;;;;;;;5078168;28;21636;-70
2021/04/17 02:21:16;;;;;;;7.60;3.37;;;;;;;;;;5077681;28;20287;-69
2021/04/17 02:23:41;;;;;;;5.27;2.83;;;;;;;;;;5077604;28;20184;-69
2021/04/17 02:26:07;;;;;;;4.17;2.47;;;;;;;;;;5079029;28;20177;-69
2021/04/17 02:28:32;;;;;;;7.00;3.00;;;;;;;;;;5088607;28;20558;-69
2021/04/17 02:31:00;;;;;;;5.43;2.90;;;;;;;;;;5080377;28;20204;-70
2021/04/17 02:33:25;;;;;;;4.97;2.50;;;;;;;;;;5080296;28;20722;-70
2021/04/17 02:35:51;;;;;;;6.20;2.87;;;;;;;;;;5077548;28;20270;-69
2021/04/17 02:38:16;;;;;;;3.30;2.27;;;;;;;;;;5078345;28;20173;-70
2021/04/17 02:40:41;;;;;;;8.40;3.43;;;;;;;;;;5075735;28;20223;-70
2021/04/17 02:43:07;;;;;;;3.87;2.50;;;;;;;;;;5079795;28;20255;-71
2021/04/17 02:45:32;;;;;;;3.90;2.40;;;;;;;;;;5078364;28;20188;-71
2021/04/17 02:47:57;;;;;;;5.40;2.40;;;;;;;;;;5080197;28;20207;-72
2021/04/17 02:50:23;;;;;;;6.83;2.30;;;;;;;;;;5085687;28;20234;-69
2021/04/17 02:52:49;;;;;;;5.73;3.53;;;;;;;;;;5080155;28;20188;-68
2021/04/17 02:55:15;;;;;;;4.77;2.40;;;;;;;;;;5087307;28;20176;-68
2021/04/17 02:57:40;;;;;;;6.60;3.50;;;;;;;;;;5082541;28;20193;-71
2021/04/17 03:00:06;;;;;;;6.90;3.57;;;;;;;;;;5083240;28;20185;-71
2021/04/17 03:02:31;;;;;;;6.17;2.77;;;;;;;;;;5087280;28;20249;-71
2021/04/17 03:04:57;;;;;;;8.10;3.70;;;;;;;;;;5085379;28;20212;-71
2021/04/17 03:07:22;;;;;;;4.27;2.30;;;;;;;;;;5078596;28;20264;-71
2021/04/17 03:09:47;;;;;;;7.43;2.47;;;;;;;;;;5075541;28;20200;-71
2021/04/17 03:12:12;;;;;;;4.03;2.30;;;;;;;;;;5075802;28;20242;-70
2021/04/17 03:14:40;;;;;;;4.70;2.80;;;;;;;;;;5077696;28;20199;-71
2021/04/17 03:17:05;;;;;;;4.83;2.60;;;;;;;;;;5082655;28;20279;-71
2021/04/17 03:19:30;;;;;;;4.93;2.80;;;;;;;;;;5080609;28;20272;-69
2021/04/17 03:21:55;;;;;;;10.50;3.07;;;;;;;;;;5072615;28;20309;-69
2021/04/17 03:24:20;;;;;;;5.03;3.10;;;;;;;;;;5085492;28;20638;-71
2021/04/17 03:26:45;;;;;;;6.83;3.10;;;;;;;;;;5081012;28;20211;-72
2021/04/17 03:29:11;;;;;;;5.13;3.47;;;;;;;;;;5075800;28;20212;-72
2021/04/17 03:31:36;;;;;;;3.80;3.03;;;;;;;;;;5084719;28;20610;-69
2021/04/17 03:34:01;;;;;;;4.27;3.10;;;;;;;;;;5082493;28;20181;-72
2021/04/17 03:36:26;;;;;;;6.90;3.27;;;;;;;;;;5079388;28;20274;-72
2021/04/17 03:38:53;;;;;;;6.30;3.60;;;;;;;;;;5072229;28;20685;-70
2021/04/17 03:41:19;;;;;;;8.10;3.80;;;;;;;;;;5077989;28;20200;-71
2021/04/17 03:43:44;;;;;;;6.60;3.47;;;;;;;;;;5083582;28;20657;-70
2021/04/17 03:46:09;;;;;;;5.93;3.50;;;;;;;;;;5081081;28;20643;-71
2021/04/17 03:48:34;;;;;;;7.10;3.83;;;;;;;;;;5072858;28;20189;-72
2021/04/17 03:50:59;;;;;;;6.97;3.80;;;;;;;;;;5080877;28;20291;-72
2021/04/17 03:53:25;;;;;;;8.90;3.77;;;;;;;;;;5085650;28;20184;-71
2021/04/17 03:55:50;;;;;;;5.57;3.83;;;;;;;;;;5082572;28;20185;-71
2021/04/17 03:58:15;;;;;;;8.33;5.00;;;;;;;;;;5078833;28;20177;-68
2021/04/17 04:00:40;;;;;;;7.50;5.37;;;;;;;;;;5078212;28;20736;-71
2021/04/17 04:03:05;;;;;;;8.57;4.57;;;;;;;;;;5072521;28;20184;-71
2021/04/17 04:05:31;;;;;;;9.57;5.27;;;;;;;;;;5084198;28;20464;-70
2021/04/17 04:07:56;;;;;;;11.43;5.40;;;;;;;;;;5074486;28;20602;-68
2021/04/17 04:10:21;;;;;;;13.13;5.83;;;;;;;;;;5070811;28;20211;-69
2021/04/17 04:12:46;;;;;;;11.33;6.77;;;;;;;;;;5082523;28;20596;-70
2021/04/17 04:15:12;;;;;;;11.73;6.60;;;;;;;;;;5080314;28;20203;-70
2021/04/17 04:17:37;;;;;;;11.67;6.17;;;;;;;;;;5079494;28;20255;-71
2021/04/17 04:20:03;;;;;;;12.10;7.27;;;;;;;;;;5081577;28;20198;-71
2021/04/17 04:22:29;;;;;;;12.20;6.60;;;;;;;;;;5079766;28;20613;-71
2021/04/17 04:24:54;;;;;;;14.70;7.60;;;;;;;;;;5075853;28;20981;-71
2021/04/17 04:27:19;;;;;;;14.13;7.60;;;;;;;;;;5075866;28;20667;-71
2021/04/17 04:29:44;;;;;;;10.80;6.73;;;;;;;;;;5077217;28;20202;-69
2021/04/17 04:32:09;;;;;;;12.07;7.03;;;;;;;;;;5078649;28;20589;-70
2021/04/17 04:34:34;;;;;;;14.83;7.17;;;;;;;;;;5075791;28;20243;-71
2021/04/17 04:37:00;;;;;;;13.63;8.03;;;;;;;;;;5079432;28;20169;-70
2021/04/17 04:39:25;;;;;;;14.97;7.57;;;;;;;;;;5077455;28;20191;-71
2021/04/17 04:41:50;;;;;;;17.47;7.97;;;;;;;;;;5085264;28;20580;-72
2021/04/17 04:44:15;;;;;;;12.40;7.63;;;;;;;;;;5087731;28;20244;-72
2021/04/17 04:46:40;;;;;;;15.47;8.37;;;;;;;;;;5083828;28;20184;-69
2021/04/17 04:49:06;;;;;;;22.30;10.20;;;;;;;;;;5072594;28;20196;-70
2021/04/17 04:51:31;;;;;;;12.60;8.70;;;;;;;;;;5074019;28;20283;-69
2021/04/17 04:53:56;;;;;;;19.97;9.03;;;;;;;;;;5076316;28;20721;-70
2021/04/17 04:56:21;;;;;;;19.40;8.93;;;;;;;;;;5078764;28;20235;-69
2021/04/17 04:58:46;;;;;;;16.17;8.93;;;;;;;;;;5081845;28;20646;-68
2021/04/17 05:01:12;;;;;;;15.10;9.37;;;;;;;;;;5076913;28;20203;-69
2021/04/17 05:03:37;;;;;;;15.77;8.10;;;;;;;;;;5074477;28;20185;-70
2021/04/17 05:06:03;;;;;;;15.47;9.30;;;;;;;;;;5079604;28;20181;-70
2021/04/17 05:08:28;;;;;;;18.07;8.90;;;;;;;;;;5076319;28;20188;-71
2021/04/17 05:10:53;;;;;;;14.77;8.77;;;;;;;;;;5086711;28;20208;-70
2021/04/17 05:13:18;;;;;;;12.50;8.33;;;;;;;;;;5087604;28;20180;-70
2021/04/17 05:15:43;;;;;;;12.30;8.67;;;;;;;;;;5073951;28;20195;-69
2021/04/17 05:18:08;;;;;;;18.17;8.80;;;;;;;;;;5076026;28;20192;-69
2021/04/17 05:20:34;;;;;;;16.70;8.30;;;;;;;;;;5079857;28;20223;-70
2021/04/17 05:22:59;;;;;;;17.07;9.67;;;;;;;;;;5073972;28;20172;-71
2021/04/17 05:25:24;;;;;;;15.00;8.60;;;;;;;;;;5079468;28;20233;-71
2021/04/17 05:27:49;;;;;;;18.07;8.63;;;;;;;;;;5080732;28;20255;-71
2021/04/17 05:30:15;;;;;;;16.40;8.07;;;;;;;;;;5083346;28;20203;-70
2021/04/17 05:32:41;;;;;;;15.10;8.07;;;;;;;;;;5079704;28;20177;-69
2021/04/17 05:35:06;;;;;;;14.93;9.20;;;;;;;;;;5077988;28;20187;-69
2021/04/17 05:37:32;;;;;;;15.07;8.63;;;;;;;;;;5082316;28;20587;-69
2021/04/17 05:39:58;;;;;;;17.67;9.23;;;;;;;;;;5090784;28;20570;-70
2021/04/17 05:42:23;;;;;;;15.30;8.30;;;;;;;;;;5080166;28;20212;-70
2021/04/17 05:44:48;;;;;;;14.07;8.83;;;;;;;;;;5076913;28;20173;-69
2021/04/17 05:47:13;;;;;;;15.00;8.70;;;;;;;;;;5076023;28;20180;-69
2021/04/17 05:49:38;;;;;;;16.80;10.30;;;;;;;;;;5080651;28;20200;-69
2021/04/17 05:52:04;;;;;;;17.50;8.53;;;;;;;;;;5082848;28;20241;-70
2021/04/17 05:54:29;;;;;;;13.27;8.83;;;;;;;;;;5087839;28;20706;-69
2021/04/17 05:56:54;;;;;;;17.33;9.73;;;;;;;;;;5078988;28;20173;-69
2021/04/17 05:59:19;;;;;;;22.43;10.50;;;;;;;;;;5078782;28;20605;-70
2021/04/17 06:01:44;;;;;;;10.10;8.17;;;;;;;;;;5080757;28;20243;-69
2021/04/17 06:04:10;;;;;;;10.83;8.47;;;;;;;;;;5086473;28;20184;-69
2021/04/17 06:06:35;;;;;;;9.40;7.67;;;;;;;;;;5088185;28;20229;-70
2021/04/17 06:09:00;;;;;;;12.60;8.53;;;;;;;;;;5080979;28;20202;-69
2021/04/17 06:11:25;;;;;;;14.27;7.57;;;;;;;;;;5077893;28;20212;-69
2021/04/17 06:13:51;;;;;;;13.17;7.27;;;;;;;;;;5075965;28;20282;-69
2021/04/17 06:16:16;;;;;;;11.33;6.40;;;;;;;;;;5076565;28;20172;-70
2021/04/17 06:18:41;;;;;;;10.30;7.80;;;;;;;;;;5076334;28;20263;-70
2021/04/17 06:21:06;;;;;;;9.10;6.63;;;;;;;;;;5074823;28;20196;-68
2021/04/17 06:23:33;;;;;;;10.07;6.53;;;;;;;;;;5075127;28;20175;-68
2021/04/17 06:25:58;;;;;;;11.70;5.93;;;;;;;;;;5076346;28;20669;-69
2021/04/17 06:28:23;;;;;;;8.07;6.00;;;;;;;;;;5083034;28;20168;-69
2021/04/17 06:30:48;;;;;;;10.20;6.80;;;;;;;;;;5084861;28;20685;-69
2021/04/17 06:33:13;;;;;;;10.00;6.00;;;;;;;;;;5077866;28;20169;-70
2021/04/17 06:35:39;;;;;;;7.57;5.63;;;;;;;;;;5076307;28;20187;-69
2021/04/17 06:38:07;;;;;;;6.77;5.10;;;;;;;;;;5081797;28;20165;-69
2021/04/17 06:40:32;;;;;;;7.93;4.53;;;;;;;;;;5076628;28;20592;-69
2021/04/17 06:42:58;;;;;;;6.40;5.07;;;;;;;;;;5080264;28;20191;-69
2021/04/17 06:45:24;;;;;;;6.00;4.03;;;;;;;;;;5078493;28;20193;-70
2021/04/17 06:47:49;;;;;;;8.23;4.47;;;;;;;;;;5080889;28;20618;-69
2021/04/17 06:50:14;;;;;;;10.33;4.57;;;;;;;;;;5092218;28;20780;-70
2021/04/17 06:52:41;;;;;;;10.60;5.07;;;;;;;;;;5075696;28;20192;-70
2021/04/17 06:55:07;;;;;;;6.37;4.00;;;;;;;;;;5076704;28;20188;-70
2021/04/17 06:57:32;;;;;;;6.73;4.50;;;;;;;;;;5078683;28;20241;-69
2021/04/17 06:59:59;;;;;;;9.13;4.10;;;;;;;;;;5080459;28;20188;-69
2021/04/17 07:02:24;;;;;;;9.50;3.67;;;;;;;;;;5070473;28;20200;-70
2021/04/17 07:04:51;;;;;;;6.07;4.20;;;;;;;;;;5070576;28;20187;-70
2021/04/17 07:07:16;;;;;;;6.83;3.70;;;;;;;;;;5077077;28;20202;-71
2021/04/17 07:09:41;;;;;;;7.33;3.53;;;;;;;;;;5076479;28;20204;-69
2021/04/17 07:12:07;;;;;;;5.40;3.00;;;;;;;;;;5078056;28;20193;-70
2021/04/17 07:14:42;;;;;;;3.73;2.70;;;;;;;;;;5091417;28;20645;-69
2021/04/17 07:17:08;;;;;;;4.30;3.00;;;;;;;;;;5076140;28;20205;-70
2021/04/17 07:19:52;;;;;;;6.03;3.23;;;;;;;;;;5078203;28;20176;-69
2021/04/17 07:22:37;;;;;;;5.57;2.87;;;;;;;;;;5078126;28;20200;-69
2021/04/17 07:25:05;;;;;;;8.00;2.53;;;;;;;;;;5076476;28;20648;-69
2021/04/17 07:27:30;;;;;;;6.23;2.27;;;;;;;;;;5078552;28;20716;-70
2021/04/17 07:29:56;;;;;;;5.13;2.37;;;;;;;;;;5073730;28;20208;-70
2021/04/17 07:32:21;;;;;;;5.63;3.10;;;;;;;;;;5069911;28;20197;-70
2021/04/17 07:35:03;;;;;;;5.03;2.40;;;;;;;;;;5082351;28;20280;-70
2021/04/17 07:37:28;;;;;;;5.70;2.67;;;;;;;;;;5077938;28;20662;-70
2021/04/17 07:39:53;;;;;;;4.97;2.50;;;;;;;;;;5079826;28;20208;-70
2021/04/17 07:42:18;;;;;;;4.23;2.40;;;;;;;;;;5075455;28;20204;-70
2021/04/17 07:44:45;;;;;;;4.07;2.27;;;;;;;;;;5083204;28;20207;-69
2021/04/17 07:47:11;;;;;;;5.07;2.20;;;;;;;;;;5075150;28;20176;-70
2021/04/17 07:49:37;;;;;;;6.33;2.17;;;;;;;;;;5069679;28;20844;-70
2021/04/17 07:52:10;;;;;;;4.20;1.83;;;;;;;;;;5082802;28;20211;-70
2021/04/17 07:54:54;;;;;;;4.60;2.07;;;;;;;;;;5074244;28;20172;-68
2021/04/17 07:57:29;;;;;;;5.53;2.27;;;;;;;;;;5075210;28;20544;-69
2021/04/17 07:59:54;;;;;;;5.63;2.37;;;;;;;;;;5079372;28;20221;-69
2021/04/17 08:02:20;;;;;;;3.83;2.37;;;;;;;;;;5077528;28;20209;-70
2021/04/17 08:04:45;;;;;;;4.33;2.03;;;;;;;;;;5083344;28;20214;-70
2021/04/17 08:07:10;;;;;;;3.87;1.70;;;;;;;;;;5077065;28;20185;-68
2021/04/17 08:09:36;;;;;;;5.17;2.67;;;;;;;;;;5081661;28;20623;-69
2021/04/17 08:12:01;;;;;;;5.77;2.27;;;;;;;;;;5079498;28;20720;-69
2021/04/17 08:14:27;;;;;;;5.23;2.17;;;;;;;;;;5087073;28;20180;-70
2021/04/17 08:16:53;;;;;;;4.83;2.10;;;;;;;;;;5079713;28;20183;-69
2021/04/17 08:19:19;;;;;;;5.17;1.90;;;;;;;;;;5077453;28;20548;-70
2021/04/17 08:21:46;;;;;;;4.50;1.80;;;;;;;;;;5075138;28;20204;-69
2021/04/17 08:24:11;;;;;;;4.63;2.17;;;;;;;;;;5077705;28;20180;-70
2021/04/17 08:26:37;;;;;;;5.80;2.00;;;;;;;;;;5071404;28;20176;-70
2021/04/17 08:29:03;;;;;;;2.53;1.60;;;;;;;;;;5082132;28;20177;-70
2021/04/17 08:31:30;;;;;;;7.70;2.47;;;;;;;;;;5075875;28;20300;-68
2021/04/17 08:34:07;;;;;;;4.53;1.67;;;;;;;;;;5081996;28;20254;-69
2021/04/17 08:36:33;;;;;;;3.27;1.87;;;;;;;;;;5083917;28;20253;-69
2021/04/17 08:38:59;;;;;;;2.63;1.93;;;;;;;;;;5086616;28;20713;-69
2021/04/17 08:41:40;;;;;;;4.87;2.00;;;;;;;;;;5078289;28;20220;-69
2021/04/17 08:44:24;;;;;;;4.73;1.60;;;;;;;;;;5080807;28;20593;-69
2021/04/17 08:46:50;;;;;;;2.58;1.67;;;;;;;;;;5081643;28;20203;-69
2021/04/17 08:49:44;;;;;;;4.03;2.03;;;;;;;;;;5076162;28;20203;-69
2021/04/17 08:52:21;;;;;;;2.10;1.50;;;;;;;;;;5081220;28;20713;-68
2021/04/17 08:54:58;;;;;;;3.00;1.10;;;;;;;;;;5075585;28;20189;-69
2021/04/17 08:57:24;;;;;;;3.38;1.38;;;;;;;;;;5079462;28;20174;-69
2021/04/17 08:59:54;;;;;;;6.30;1.55;;;;;;;;;;5077678;28;20179;-69
2021/04/17 09:02:19;;;;;;;4.05;1.77;;;;;;;;;;5082326;28;20269;-69
2021/04/17 09:05:03;;;;;;;3.40;1.75;;;;;;;;;;5077700;28;20649;-69
2021/04/17 09:07:30;;;;;;;5.03;1.60;;;;;;;;;;5082474;28;20317;-69
2021/04/17 09:09:55;;;;;;;4.28;2.22;;;;;;;;;;5080291;28;20560;-69
2021/04/17 09:12:22;;;;;;;4.82;1.30;;;;;;;;;;5080180;28;20222;-68
2021/04/17 09:14:49;;;;;;;4.15;1.63;;;;;;;;;;5082936;28;20168;-68
2021/04/17 09:17:29;;;;;;;5.80;1.52;;;;;;;;;;5085200;28;20203;-69
2021/04/17 09:19:54;;;;;;;3.92;1.52;;;;;;;;;;5090405;28;20263;-69
2021/04/17 09:22:32;;;;;;;7.60;1.95;;;;;;;;;;5084236;28;20216;-69
2021/04/17 09:25:03;;;;;;;4.70;1.98;;;;;;;;;;5079424;28;20229;-68
2021/04/17 09:27:48;;;;;;;4.32;1.20;;;;;;;;;;5080280;28;20218;-69
2021/04/17 09:30:15;;;;;;;2.40;1.10;;;;;;;;;;5080712;28;20216;-68
2021/04/17 09:32:43;;;;;;;4.90;1.60;;;;;;;;;;5077647;28;20176;-68
2021/04/17 09:35:18;;;;;;;2.30;1.20;;;;;;;;;;5087148;28;20192;-70
2021/04/17 09:37:44;;;;;;;4.80;1.52;;;;;;;;;;5082601;28;20722;-69
2021/04/17 09:40:09;;;;;;;9.70;1.65;;;;;;;;;;5078468;28;20184;-70
2021/04/17 09:42:39;;;;;;;1.85;1.13;;;;;;;;;;5080168;28;20204;-69
2021/04/17 09:45:06;;;;;;;4.65;1.58;;;;;;;;;;5081806;28;20168;-70
2021/04/17 09:47:32;;;;;;;6.35;1.60;;;;;;;;;;5083978;28;20180;-69
2021/04/17 09:49:57;;;;;;;4.80;1.77;;;;;;;;;;5088091;28;20212;-69
2021/04/17 09:52:23;;;;;;;2.55;1.65;;;;;;;;;;5080695;28;20206;-69
2021/04/17 09:54:57;;;;;;;3.83;1.95;;;;;;;;;;5081259;28;20184;-69
2021/04/17 09:57:22;;;;;;;4.65;1.38;;;;;;;;;;5079539;28;20165;-69
2021/04/17 09:59:51;;;;;;;2.83;1.65;;;;;;;;;;5078218;28;20186;-70
2021/04/17 10:02:16;;;;;;;5.22;2.03;;;;;;;;;;5081097;28;20200;-69
2021/04/17 10:04:45;;;;;;;5.32;1.35;;;;;;;;;;5080199;28;21970;-69
2021/04/17 10:07:11;;;;;;;3.55;1.30;;;;;;;;;;5079608;28;20196;-69
2021/04/17 10:09:36;;;;;;;3.47;1.48;;;;;;;;;;5072870;28;20208;-69
2021/04/17 10:12:05;;;;;;;3.33;1.40;;;;;;;;;;5084122;28;20571;-69
2021/04/17 10:14:31;;;;;;;3.25;1.35;;;;;;;;;;5078433;28;20850;-69
2021/04/17 10:16:56;;;;;;;4.63;1.60;;;;;;;;;;5090729;28;20176;-68
2021/04/17 10:19:22;;;;;;;4.28;1.50;;;;;;;;;;5075884;28;20200;-69
2021/04/17 10:21:54;;;;;;;4.60;1.85;;;;;;;;;;5079100;28;20570;-69
2021/04/17 10:24:19;;;;;;;3.30;1.73;;;;;;;;;;5081524;28;20187;-70
2021/04/17 10:27:06;;;;;;;5.53;2.03;;;;;;;;;;5075825;28;20169;-69
2021/04/17 10:29:41;;;;;;;5.10;1.50;;;;;;;;;;5084679;28;20218;-68
2021/04/17 10:32:17;;;;;;;2.88;1.38;;;;;;;;;;5075010;28;20200;-69
2021/04/17 10:34:53;;;;;;;5.85;2.05;;;;;;;;;;5079770;28;20195;-69
2021/04/17 10:37:19;;;;;;;5.85;1.48;;;;;;;;;;5083686;28;20177;-69
2021/04/17 10:39:59;;;;;;;6.15;1.70;;;;;;;;;;5079269;28;20726;-69
2021/04/17 10:42:25;;;;;;;3.90;1.80;;;;;;;;;;5075623;28;20246;-70
2021/04/17 10:44:54;;;;;;;3.40;1.40;;;;;;;;;;5075169;28;20180;-70
2021/04/17 10:47:20;;;;;;;4.40;1.48;;;;;;;;;;5082401;28;20206;-70
2021/04/17 10:49:45;;;;;;;6.57;2.08;;;;;;;;;;5077121;28;20720;-70
2021/04/17 10:52:27;;;;;;;3.22;1.67;;;;;;;;;;5072275;28;20197;-68
2021/04/17 10:54:53;;;;;;;4.05;1.40;;;;;;;;;;5077211;28;20620;-68
2021/04/17 10:57:18;;;;;;;3.38;1.80;;;;;;;;;;5085317;28;20256;-71
2021/04/17 10:59:50;;;;;;;3.58;1.80;;;;;;;;;;5074496;28;20180;-70
2021/04/17 11:02:15;;;;;;;4.53;1.65;;;;;;;;;;5079933;28;20208;-68
2021/04/17 11:04:44;;;;;;;4.40;1.83;;;;;;;;;;5071185;28;20230;-69
2021/04/17 11:07:10;;;;;;;6.07;1.80;;;;;;;;;;5076967;28;20537;-70
2021/04/17 11:09:44;;;;;;;4.68;1.77;;;;;;;;;;5086067;28;20173;-70
2021/04/17 11:12:12;;;;;;;6.47;1.73;;;;;;;;;;5074920;28;20296;-69
2021/04/17 11:14:37;;;;;;;4.70;1.88;;;;;;;;;;5076410;28;20502;-69
2021/04/17 11:17:10;;;;;;;4.57;1.90;;;;;;;;;;5078484;28;20204;-70
2021/04/17 11:19:41;;;;;;;6.22;1.88;;;;;;;;;;5070852;28;20422;-70
2021/04/17 11:22:27;;;;;;;4.10;1.60;;;;;;;;;;5087769;28;20188;-70
2021/04/17 11:24:58;;;;;;;4.47;1.77;;;;;;;;;;5085476;28;20192;-70
2021/04/17 11:27:23;;;;;;;4.20;1.98;;;;;;;;;;5077155;28;22579;-70
2021/04/17 11:29:49;;;;;;;3.50;1.95;;;;;;;;;;5078979;28;20252;-69
2021/04/17 11:32:14;;;;;;;6.18;2.00;;;;;;;;;;5081147;28;20211;-70
2021/04/17 11:34:43;;;;;;;6.82;1.75;;;;;;;;;;5072110;28;20287;-70
2021/04/17 11:37:08;;;;;;;5.55;2.22;;;;;;;;;;5079173;28;20184;-70
2021/04/17 11:39:33;;;;;;;6.55;2.05;;;;;;;;;;5079908;28;20176;-70
2021/04/17 11:41:58;;;;;;;5.18;2.40;;;;;;;;;;5071837;28;20204;-69
2021/04/17 11:44:23;;;;;;;5.73;2.27;;;;;;;;;;5076944;28;20645;-69
2021/04/17 11:46:49;;;;;;;4.20;2.55;;;;;;;;;;5074545;28;20496;-69
2021/04/17 11:49:15;;;;;;;6.63;1.90;;;;;;;;;;5073484;28;20255;-68
2021/04/17 11:51:40;;;;;;;5.35;2.00;;;;;;;;;;5074329;28;20690;-68
2021/04/17 11:54:05;;;;;;;5.63;2.17;;;;;;;;;;5077280;28;20242;-69
2021/04/17 11:56:30;;;;;;;4.53;2.07;;;;;;;;;;5078241;28;20241;-68
2021/04/17 11:58:56;;;;;;;5.13;2.17;;;;;;;;;;5083217;28;20483;-69
2021/04/17 12:01:21;;;;;;;5.25;2.22;;;;;;;;;;5074785;28;20493;-69
2021/04/17 12:03:46;;;;;;;5.00;2.38;;;;;;;;;;5078589;28;20184;-69
2021/04/17 12:06:12;;;;;;;3.67;1.77;;;;;;;;;;5078187;28;20226;-69
2021/04/17 12:08:38;;;;;;;3.55;1.85;;;;;;;;;;5079919;28;20220;-69
2021/04/17 12:11:03;;;;;;;6.80;1.67;;;;;;;;;;5081101;28;20247;-70
2021/04/17 12:13:29;;;;;;;6.32;2.08;;;;;;;;;;5081795;28;20179;-68
2021/04/17 12:15:54;;;;;;;5.80;2.30;;;;;;;;;;5083085;28;20173;-69
2021/04/17 12:18:19;;;;;;;5.30;2.55;;;;;;;;;;5070306;28;20177;-70
2021/04/17 12:20:45;;;;;;;6.30;2.03;;;;;;;;;;5075153;28;20623;-69
2021/04/17 12:23:10;;;;;;;3.10;2.05;;;;;;;;;;5078703;28;20275;-70
2021/04/17 12:25:35;;;;;;;4.07;1.95;;;;;;;;;;5080619;28;20265;-69
2021/04/17 12:28:00;;;;;;;4.47;2.47;;;;;;;;;;5082823;28;20654;-70
2021/04/17 12:30:26;;;;;;;4.72;1.75;;;;;;;;;;5077093;28;20239;-70
2021/04/17 12:32:52;;;;;;;3.65;1.77;;;;;;;;;;5079980;28;20189;-69
2021/04/17 12:35:20;;;;;;;3.72;1.80;;;;;;;;;;5088336;28;20299;-69
2021/04/17 12:37:45;;;;;;;5.13;2.67;;;;;;;;;;5075060;28;20249;-69
2021/04/17 12:40:11;;;;;;;6.63;2.53;;;;;;;;;;5087618;28;20854;-70
2021/04/17 12:42:36;;;;;;;5.47;1.77;;;;;;;;;;5080754;28;20416;-69
2021/04/17 12:45:02;;;;;;;6.32;1.90;;;;;;;;;;5082484;28;20203;-70
2021/04/17 12:47:27;;;;;;;6.82;1.92;;;;;;;;;;5082674;28;20176;-69
2021/04/17 12:49:52;;;;;;;4.32;1.65;;;;;;;;;;5078815;28;20197;-69
2021/04/17 12:52:18;;;;;;;5.70;1.92;;;;;;;;;;5080389;28;20220;-69
2021/04/17 12:54:43;;;;;;;5.43;1.88;;;;;;;;;;5075573;28;20590;-69
2021/04/17 12:57:08;;;;;;;4.32;2.17;;;;;;;;;;5077482;28;20177;-70
2021/04/17 12:59:34;;;;;;;3.92;1.60;;;;;;;;;;5079938;28;20165;-70
2021/04/17 13:01:59;;;;;;;4.20;1.70;;;;;;;;;;5075735;28;20674;-69
2021/04/17 13:04:25;;;;;;;3.95;2.13;;;;;;;;;;5072653;28;20252;-69
2021/04/17 13:06:50;;;;;;;3.15;1.60;;;;;;;;;;5078967;28;20180;-69
2021/04/17 13:09:15;;;;;;;5.35;1.80;;;;;;;;;;5078963;28;20177;-69
2021/04/17 13:11:41;;;;;;;4.40;2.20;;;;;;;;;;5078772;28;20630;-69
2021/04/17 13:14:06;;;;;;;4.28;1.77;;;;;;;;;;5078725;28;20226;-69
2021/04/17 13:16:31;;;;;;;5.60;2.45;;;;;;;;;;5076181;28;20647;-69
2021/04/17 13:18:56;;;;;;;3.40;1.83;;;;;;;;;;5074855;28;20184;-69
2021/04/17 13:21:22;;;;;;;4.18;2.30;;;;;;;;;;5076481;28;20219;-69
2021/04/17 13:23:47;;;;;;;3.78;2.13;;;;;;;;;;5079915;28;20176;-70
2021/04/17 13:26:16;;;;;;;5.93;1.88;;;;;;;;;;5081125;28;20839;-70
2021/04/17 13:28:41;;;;;;;3.38;1.80;;;;;;;;;;5082631;28;20616;-69
2021/04/17 13:31:06;;;;;;;5.70;2.10;;;;;;;;;;5082207;28;20205;-69
2021/04/17 13:33:32;;;;;;;3.80;1.93;;;;;;;;;;5075132;28;20184;-67
2021/04/17 13:35:57;;;;;;;3.92;2.05;;;;;;;;;;5073077;28;20529;-69
2021/04/17 13:38:22;;;;;;;3.87;1.70;;;;;;;;;;5083174;28;20188;-70
2021/04/17 13:40:48;;;;;;;4.93;2.30;;;;;;;;;;5081170;28;20468;-69
2021/04/17 13:43:13;;;;;;;4.60;2.53;;;;;;;;;;5079526;28;20569;-69
2021/04/17 13:45:38;;;;;;;3.75;2.22;;;;;;;;;;5076339;28;20235;-69
2021/04/17 13:48:04;;;;;;;5.53;2.10;;;;;;;;;;5075572;28;20193;-69
2021/04/17 13:50:29;;;;;;;3.33;1.90;;;;;;;;;;5084676;28;20223;-70
2021/04/17 13:52:54;;;;;;;6.00;1.95;;;;;;;;;;5078239;28;20173;-69
2021/04/17 13:55:19;;;;;;;7.32;3.70;;;;;;;;;;5077346;28;20203;-69
2021/04/17 13:57:45;;;;;;;5.35;2.53;;;;;;;;;;5083107;28;20255;-70
2021/04/17 14:00:11;;;;;;;4.45;1.95;;;;;;;;;;5081657;28;20189;-69
2021/04/17 14:02:36;;;;;;;5.45;2.70;;;;;;;;;;5072726;28;20184;-69
2021/04/17 14:05:01;;;;;;;3.88;2.33;;;;;;;;;;5072743;28;20268;-69
2021/04/17 14:07:27;;;;;;;6.38;2.60;;;;;;;;;;5076340;28;20188;-69
2021/04/17 14:09:52;;;;;;;4.20;2.47;;;;;;;;;;5082921;28;20201;-70
2021/04/17 14:12:17;;;;;;;4.20;2.20;;;;;;;;;;5084452;28;20294;-69
2021/04/17 14:14:43;;;;;;;7.35;2.58;;;;;;;;;;5083241;28;20164;-70
2021/04/17 14:17:08;;;;;;;4.30;1.75;;;;;;;;;;5083250;28;20185;-69
2021/04/17 14:19:33;;;;;;;6.22;2.58;;;;;;;;;;5082406;28;20473;-69
2021/04/17 14:21:59;;;;;;;6.28;2.28;;;;;;;;;;5076759;28;20625;-69
2021/04/17 14:24:24;;;;;;;5.90;2.15;;;;;;;;;;5079833;28;20264;-69
2021/04/17 14:26:49;;;;;;;6.22;2.10;;;;;;;;;;5077859;28;20221;-70
2021/04/17 14:29:14;;;;;;;3.63;1.98;;;;;;;;;;5079240;28;20189;-70
2021/04/17 14:31:40;;;;;;;4.53;1.98;;;;;;;;;;5080090;28;20334;-69
2021/04/17 14:34:05;;;;;;;3.65;1.85;;;;;;;;;;5078810;28;20195;-69
2021/04/17 14:36:31;;;;;;;2.60;1.75;;;;;;;;;;5077503;28;20188;-70
2021/04/17 14:38:56;;;;;;;4.32;2.28;;;;;;;;;;5072240;28;20176;-69